Time;durP1;ratioP1;P1;durP2;ratioP2;P2;SDS_P1;SDS_P2;PMS_P1;PMS_P2;Temp;Humidity;BMP_temperature;BMP_pressure;BME280_temperature;BME280_humidity;BME280_pressure;Samples;Min_cycle;Max_cycle;Signal;HPM_P1;HPM_P2
2022/04/25 00:01:16;;;;;;;;;;;9.70;99.90;;;;;;4997845;28;19925;-93
2022/04/25 00:03:44;;;;;;;;;;;9.70;99.90;;;;;;5015974;28;20169;-94
2022/04/25 00:06:12;;;;;;;;;;;9.70;99.90;;;;;;5002098;28;19932;-93
2022/04/25 00:08:39;;;;;;;;;;;9.70;99.90;;;;;;5006603;28;19926;-93
2022/04/25 00:11:07;;;;;;;;;;;9.70;99.90;;;;;;5000800;28;19929;-93
2022/04/25 00:13:34;;;;;;;;;;;9.70;99.90;;;;;;5016905;28;19976;-93
2022/04/25 00:16:01;;;;;;;;;;;9.70;99.90;;;;;;5013903;28;19969;-93
2022/04/25 00:18:28;;;;;;;;;;;9.60;99.90;;;;;;4999328;28;19926;-93
2022/04/25 00:20:56;;;;;;;;;;;9.60;99.90;;;;;;5016950;28;19948;-92
2022/04/25 00:23:25;;;;;;;;;;;9.60;99.90;;;;;;5012092;28;20004;-93
2022/04/25 00:25:52;;;;;;;;;;;9.60;99.90;;;;;;4993826;28;19985;-93
2022/04/25 00:28:19;;;;;;;;;;;9.60;99.90;;;;;;5011654;28;19926;-93
2022/04/25 00:30:47;;;;;;;;;;;9.60;99.90;;;;;;5018866;28;19925;-93
2022/04/25 00:33:14;;;;;;;;;;;9.60;99.90;;;;;;5001045;28;19929;-93
2022/04/25 00:35:41;;;;;;;;;;;9.60;99.90;;;;;;5015925;28;19948;-93
2022/04/25 00:38:09;;;;;;;;;;;9.60;99.90;;;;;;5001276;28;19934;-92
2022/04/25 00:40:37;;;;;;;;;;;9.60;99.90;;;;;;5002852;28;20025;-93
2022/04/25 00:43:05;;;;;;;;;;;9.60;99.90;;;;;;4999178;28;20362;-92
2022/04/25 00:45:32;;;;;;;;;;;9.60;99.90;;;;;;5011384;28;19930;-93
2022/04/25 00:48:00;;;;;;;;;;;9.60;99.90;;;;;;5019027;28;19929;-93
2022/04/25 00:50:28;;;;;;;;;;;9.60;99.90;;;;;;4996242;28;19988;-92
2022/04/25 00:52:55;;;;;;;;;;;9.60;99.90;;;;;;5003309;28;20384;-92
2022/04/25 00:55:22;;;;;;;;;;;9.60;99.90;;;;;;4995153;28;20686;-92
2022/04/25 00:57:52;;;;;;;;;;;9.60;99.90;;;;;;4996279;28;19926;-92
2022/04/25 01:00:19;;;;;;;;;;;9.60;99.90;;;;;;4989735;28;19932;-93
2022/04/25 01:02:47;;;;;;;;;;;9.60;99.90;;;;;;4999227;28;19936;-93
2022/04/25 01:05:14;;;;;;;;;;;9.60;99.90;;;;;;4998565;28;19933;-93
2022/04/25 01:07:41;;;;;;;;;;;9.60;99.90;;;;;;5008633;28;19929;-93
2022/04/25 01:10:09;;;;;;;;;;;9.60;99.90;;;;;;5031746;28;19929;-92
2022/04/25 01:12:36;;;;;;;;;;;9.50;99.90;;;;;;5016046;28;19925;-93
2022/04/25 01:15:06;;;;;;;;;;;9.60;99.90;;;;;;5017782;28;19988;-93
2022/04/25 01:17:33;;;;;;;;;;;9.60;99.90;;;;;;4997532;28;19925;-93
2022/04/25 01:20:00;;;;;;;;;;;9.50;99.90;;;;;;5009804;28;20028;-93
2022/04/25 01:22:30;;;;;;;;;;;9.50;99.90;;;;;;4988362;28;19933;-93
2022/04/25 01:27:43;;;;;;;;;;;9.60;99.90;;;;;;5000752;28;19926;-93
2022/04/25 01:30:11;;;;;;;;;;;9.50;99.90;;;;;;4999498;28;20028;-92
2022/04/25 01:32:38;;;;;;;;;;;9.50;99.90;;;;;;4999500;28;19933;-92
2022/04/25 01:35:06;;;;;;;;;;;9.50;99.90;;;;;;4997661;28;19932;-93
2022/04/25 01:37:33;;;;;;;;;;;9.50;99.90;;;;;;4997966;28;19965;-92
2022/04/25 01:40:02;;;;;;;;;;;9.50;99.90;;;;;;5000955;28;19945;-92
2022/04/25 01:42:29;;;;;;;;;;;9.50;99.90;;;;;;5018037;28;19926;-93
2022/04/25 01:44:56;;;;;;;;;;;9.50;99.90;;;;;;5010036;28;19925;-93
2022/04/25 01:47:23;;;;;;;;;;;9.50;99.90;;;;;;5014526;28;19947;-93
2022/04/25 01:49:51;;;;;;;;;;;9.50;99.90;;;;;;5011744;28;19956;-93
2022/04/25 01:52:21;;;;;;;;;;;9.50;99.90;;;;;;4997889;28;19925;-92
2022/04/25 01:54:48;;;;;;;;;;;9.50;99.90;;;;;;5002611;28;20016;-91
2022/04/25 01:57:17;;;;;;;;;;;9.50;99.90;;;;;;4996340;28;20028;-92
2022/04/25 01:59:45;;;;;;;;;;;9.50;99.90;;;;;;4991872;28;20307;-92
2022/04/25 02:02:12;;;;;;;;;;;9.50;99.90;;;;;;4996402;28;19936;-92
2022/04/25 02:04:40;;;;;;;;;;;9.50;99.90;;;;;;4994500;28;19925;-93
2022/04/25 02:07:07;;;;;;;;;;;9.50;99.90;;;;;;4990506;28;19925;-93
2022/04/25 02:09:34;;;;;;;;;;;9.50;99.90;;;;;;5006677;28;19925;-93
2022/04/25 02:12:02;;;;;;;;;;;9.50;99.90;;;;;;4992173;28;20473;-92
2022/04/25 02:14:30;;;;;;;;;;;9.50;99.90;;;;;;4993741;28;19931;-93
2022/04/25 02:16:58;;;;;;;;;;;9.50;99.90;;;;;;4998136;28;19925;-92
2022/04/25 02:19:26;;;;;;;;;;;9.50;99.90;;;;;;5020700;28;19929;-93
2022/04/25 02:21:53;;;;;;;;;;;9.40;99.90;;;;;;5002092;28;19929;-93
2022/04/25 02:24:20;;;;;;;;;;;9.50;99.90;;;;;;5019704;28;19952;-92
2022/04/25 02:26:48;;;;;;;;;;;9.40;99.90;;;;;;4996551;28;19933;-93
2022/04/25 02:29:15;;;;;;;;;;;9.50;99.90;;;;;;4995959;28;19948;-93
2022/04/25 02:31:44;;;;;;;;;;;9.40;99.90;;;;;;5003199;28;19926;-93
2022/04/25 02:34:11;;;;;;;;;;;9.40;99.90;;;;;;4994700;28;19925;-92
2022/04/25 02:36:38;;;;;;;;;;;9.40;99.90;;;;;;5001340;28;19937;-92
2022/04/25 02:39:06;;;;;;;;;;;9.40;99.90;;;;;;5012520;28;19972;-93
2022/04/25 02:41:33;;;;;;;;;;;9.40;99.90;;;;;;4996152;28;19980;-92
2022/04/25 02:44:00;;;;;;;;;;;9.40;99.90;;;;;;4996019;28;20028;-93
2022/04/25 02:46:27;;;;;;;;;;;9.40;99.90;;;;;;4996811;28;19926;-92
2022/04/25 02:48:56;;;;;;;;;;;9.40;99.90;;;;;;5011945;28;20452;-92
2022/04/25 02:51:23;;;;;;;;;;;9.40;99.90;;;;;;5203618;23;19945;-79
2022/04/25 02:53:50;;;;;;;;;;;9.40;99.90;;;;;;4985112;28;20339;-79
2022/04/25 02:56:17;;;;;;;;;;;9.40;99.90;;;;;;4991203;28;19932;-79
2022/04/25 02:58:44;;;;;;;;;;;9.40;99.90;;;;;;4994200;28;20333;-78
2022/04/25 03:01:11;;;;;;;;;;;9.40;99.90;;;;;;5003306;28;20432;-79
2022/04/25 03:03:39;;;;;;;;;;;9.40;99.90;;;;;;5002908;28;19925;-79
2022/04/25 03:06:08;;;;;;;;;;;9.40;99.90;;;;;;4987143;28;20384;-79
2022/04/25 03:08:36;;;;;;;;;;;9.40;99.90;;;;;;4988444;28;19929;-79
2022/04/25 03:11:03;;;;;;;;;;;9.40;99.90;;;;;;5004430;28;19933;-78
2022/04/25 03:13:30;;;;;;;;;;;9.40;99.90;;;;;;4989812;28;19930;-78
2022/04/25 03:15:57;;;;;;;;;;;9.40;99.90;;;;;;5002705;28;20407;-79
2022/04/25 03:18:24;;;;;;;;;;;9.40;99.90;;;;;;5004415;28;19929;-78
2022/04/25 03:20:52;;;;;;;;;;;9.40;99.90;;;;;;5006465;28;19932;-79
2022/04/25 03:23:21;;;;;;;;;;;9.40;99.90;;;;;;5004509;28;19933;-78
2022/04/25 03:25:48;;;;;;;;;;;9.30;99.90;;;;;;5009029;28;19968;-79
2022/04/25 03:28:15;;;;;;;;;;;9.30;99.90;;;;;;4986800;28;19972;-79
2022/04/25 03:30:42;;;;;;;;;;;9.30;99.90;;;;;;5005406;28;20402;-79
2022/04/25 03:33:11;;;;;;;;;;;9.30;99.90;;;;;;4993060;28;19925;-79
2022/04/25 03:35:38;;;;;;;;;;;9.30;99.90;;;;;;5004826;28;19929;-79
2022/04/25 03:38:06;;;;;;;;;;;9.30;99.90;;;;;;4989259;28;19929;-78
2022/04/25 03:40:35;;;;;;;;;;;9.30;99.90;;;;;;5007326;28;19934;-79
2022/04/25 03:43:02;;;;;;;;;;;9.30;99.90;;;;;;5001726;28;20000;-79
2022/04/25 03:45:30;;;;;;;;;;;9.30;99.90;;;;;;4987014;28;19986;-79
2022/04/25 03:47:57;;;;;;;;;;;9.30;99.90;;;;;;4985946;28;19929;-80
2022/04/25 03:50:24;;;;;;;;;;;9.30;99.90;;;;;;5002332;28;19973;-80
2022/04/25 03:52:51;;;;;;;;;;;9.30;99.90;;;;;;5002599;28;20039;-79
2022/04/25 03:58:19;;;;;;;;;;;9.30;99.90;;;;;;4960346;28;19973;-78
2022/04/25 04:00:46;;;;;;;;;;;9.20;99.90;;;;;;4977580;28;21550;-79
2022/04/25 04:03:14;;;;;;;;;;;9.30;99.90;;;;;;4997142;28;19958;-78
2022/04/25 04:05:42;;;;;;;;;;;9.30;99.90;;;;;;4984975;28;19933;-78
2022/04/25 04:08:09;;;;;;;;;;;9.20;99.90;;;;;;4987574;28;20411;-78
2022/04/25 04:10:36;;;;;;;;;;;9.20;99.90;;;;;;5000882;28;19926;-78
2022/04/25 04:13:05;;;;;;;;;;;9.20;99.90;;;;;;5001771;28;19973;-78
2022/04/25 04:15:34;;;;;;;;;;;9.20;99.90;;;;;;4983242;28;20303;-78
2022/04/25 04:18:01;;;;;;;;;;;9.20;99.90;;;;;;4986050;28;19953;-79
2022/04/25 04:20:28;;;;;;;;;;;9.20;99.90;;;;;;4997808;28;19976;-79
2022/04/25 04:22:55;;;;;;;;;;;9.20;99.90;;;;;;5000289;28;20032;-78
2022/04/25 04:25:23;;;;;;;;;;;9.20;99.90;;;;;;5006093;28;19929;-79
2022/04/25 04:27:50;;;;;;;;;;;9.20;99.90;;;;;;5009310;28;20346;-80
2022/04/25 04:30:18;;;;;;;;;;;9.20;99.90;;;;;;5001774;28;19933;-78
2022/04/25 04:32:46;;;;;;;;;;;9.20;99.90;;;;;;5006828;28;20399;-77
2022/04/25 04:36:17;;;;;;;;;;;9.20;99.90;;;;;;5003508;28;20411;-78
2022/04/25 04:38:03;;;;;;;;;;;9.20;99.90;;;;;;4985993;28;20021;-77
2022/04/25 04:40:30;;;;;;;;;;;9.10;99.90;;;;;;4982910;28;20192;-77
2022/04/25 04:42:58;;;;;;;;;;;9.10;99.90;;;;;;4994511;28;19929;-77
2022/04/25 04:45:26;;;;;;;;;;;9.10;99.90;;;;;;5001637;28;19972;-77
2022/04/25 04:47:54;;;;;;;;;;;9.10;99.90;;;;;;5000832;28;20391;-77
2022/04/25 04:50:21;;;;;;;;;;;9.10;99.90;;;;;;4992766;28;21286;-77
2022/04/25 04:52:49;;;;;;;;;;;9.10;99.90;;;;;;4979762;28;19933;-76
2022/04/25 04:55:16;;;;;;;;;;;9.10;99.90;;;;;;4988105;28;20388;-76
2022/04/25 04:57:43;;;;;;;;;;;9.10;99.90;;;;;;4995791;28;19926;-77
2022/04/25 05:00:11;;;;;;;;;;;9.10;99.90;;;;;;4982131;28;20388;-77
2022/04/25 05:02:38;;;;;;;;;;;9.00;99.90;;;;;;5001974;28;19936;-77
2022/04/25 05:05:07;;;;;;;;;;;9.10;99.90;;;;;;4992904;28;20000;-77
2022/04/25 05:07:36;;;;;;;;;;;9.00;99.90;;;;;;4997282;28;19933;-77
2022/04/25 05:10:04;;;;;;;;;;;9.00;99.90;;;;;;4997642;28;19937;-76
2022/04/25 05:12:31;;;;;;;;;;;9.00;99.90;;;;;;5002055;28;19929;-78
2022/04/25 05:14:58;;;;;;;;;;;9.00;99.90;;;;;;4996034;28;19925;-78
2022/04/25 05:17:25;;;;;;;;;;;9.00;99.90;;;;;;4982511;28;19929;-78
2022/04/25 05:19:52;;;;;;;;;;;9.00;99.90;;;;;;5000185;28;19933;-77
2022/04/25 05:22:21;;;;;;;;;;;9.00;99.90;;;;;;4998153;28;20023;-78
2022/04/25 05:24:48;;;;;;;;;;;9.00;99.90;;;;;;4995758;28;19969;-78
2022/04/25 05:27:17;;;;;;;;;;;9.00;99.90;;;;;;4994976;28;19984;-77
2022/04/25 05:29:44;;;;;;;;;;;9.00;99.90;;;;;;4984083;28;19925;-79
2022/04/25 05:32:11;;;;;;;;;;;9.00;99.90;;;;;;4987413;28;20402;-78
2022/04/25 05:34:38;;;;;;;;;;;9.00;99.90;;;;;;5006426;28;19937;-78
2022/04/25 05:37:06;;;;;;;;;;;9.00;99.90;;;;;;4993133;28;19934;-79
2022/04/25 05:39:34;;;;;;;;;;;9.00;99.90;;;;;;5007337;28;20356;-78
2022/04/25 05:42:01;;;;;;;;;;;9.00;99.90;;;;;;5014394;28;19926;-78
2022/04/25 05:44:28;;;;;;;;;;;9.00;99.90;;;;;;5004771;28;20060;-78
2022/04/25 05:46:56;;;;;;;;;;;9.00;99.90;;;;;;5007353;28;19926;-79
2022/04/25 05:52:08;;;;;;;;;;;9.00;99.90;;;;;;4996995;28;19929;-78
2022/04/25 05:54:36;;;;;;;;;;;9.00;99.90;;;;;;4983753;28;19933;-78
2022/04/25 05:57:04;;;;;;;;;;;9.00;99.90;;;;;;5001416;28;19933;-78
2022/04/25 05:59:31;;;;;;;;;;;9.00;99.90;;;;;;5005374;28;19926;-79
2022/04/25 06:01:58;;;;;;;;;;;9.00;99.90;;;;;;5000536;28;20580;-78
2022/04/25 06:04:25;;;;;;;;;;;9.00;99.90;;;;;;4994492;28;19934;-79
2022/04/25 06:06:52;;;;;;;;;;;9.00;99.90;;;;;;4999110;28;19933;-79
2022/04/25 06:09:19;;;;;;;;;;;8.90;99.90;;;;;;5005299;28;19925;-78
2022/04/25 06:11:49;;;;;;;;;;;9.00;99.90;;;;;;4997513;28;19986;-79
2022/04/25 06:14:16;;;;;;;;;;;9.00;99.90;;;;;;5000509;28;19929;-79
2022/04/25 06:16:43;;;;;;;;;;;9.00;99.90;;;;;;5004065;28;20639;-79
2022/04/25 06:19:10;;;;;;;;;;;9.00;99.90;;;;;;5007962;28;19925;-78
2022/04/25 06:21:37;;;;;;;;;;;8.90;99.90;;;;;;4988488;28;19925;-79
2022/04/25 06:24:05;;;;;;;;;;;9.00;99.90;;;;;;4986259;28;20300;-78
2022/04/25 06:26:34;;;;;;;;;;;9.00;99.90;;;;;;4987632;28;19949;-79
2022/04/25 06:29:03;;;;;;;;;;;8.90;99.90;;;;;;4985904;28;20408;-78
2022/04/25 06:31:30;;;;;;;;;;;8.90;99.90;;;;;;4989274;28;19930;-79
2022/04/25 06:33:58;;;;;;;;;;;8.80;99.90;;;;;;5013337;28;19930;-78
2022/04/25 06:36:25;;;;;;;;;;;8.80;99.90;;;;;;4986479;28;19929;-78
2022/04/25 06:38:55;;;;;;;;;;;8.80;99.90;;;;;;5001450;28;20013;-78
2022/04/25 06:41:22;;;;;;;;;;;8.90;99.90;;;;;;4994744;28;19932;-79
2022/04/25 06:43:49;;;;;;;;;;;8.90;99.90;;;;;;5009468;28;19979;-78
2022/04/25 06:46:17;;;;;;;;;;;8.90;99.90;;;;;;5004618;28;19957;-79
2022/04/25 06:49:19;;;;;;;;;;;8.90;99.90;;;;;;5003092;28;19925;-79
2022/04/25 06:51:33;;;;;;;;;;;8.90;99.90;;;;;;5000458;28;19932;-79
2022/04/25 06:54:00;;;;;;;;;;;8.90;99.90;;;;;;5003227;28;19925;-78
2022/04/25 06:56:27;;;;;;;;;;;8.90;99.90;;;;;;4997190;28;19930;-79
2022/04/25 06:58:54;;;;;;;;;;;8.90;99.90;;;;;;4997024;28;19929;-78
2022/04/25 07:01:23;;;;;;;;;;;8.90;99.90;;;;;;4979235;28;19972;-78
2022/04/25 07:03:50;;;;;;;;;;;9.00;99.90;;;;;;5006648;28;19936;-78
2022/04/25 07:06:18;;;;;;;;;;;9.00;99.90;;;;;;5005139;28;20458;-78
2022/04/25 07:08:46;;;;;;;;;;;9.00;99.90;;;;;;4981835;28;21349;-79
2022/04/25 07:11:13;;;;;;;;;;;9.00;99.90;;;;;;5002199;28;20403;-79
2022/04/25 07:13:42;;;;;;;;;;;9.00;99.90;;;;;;5004467;28;20413;-79
2022/04/25 07:16:10;;;;;;;;;;;9.00;99.90;;;;;;5003438;28;19925;-78
2022/04/25 07:18:38;;;;;;;;;;;9.00;99.90;;;;;;5004364;28;19929;-78
2022/04/25 07:28:48;;;;;;;;;;;9.00;99.90;;;;;;5002480;28;20434;-79
2022/04/25 07:29:25;;;;;;;;;;;9.10;99.90;;;;;;5005209;28;20308;-78
2022/04/25 07:31:53;;;;;;;;;;;9.10;99.90;;;;;;5001657;28;19926;-78
2022/04/25 07:34:22;;;;;;;;;;;9.10;99.90;;;;;;4998729;28;19929;-79
2022/04/25 07:36:51;;;;;;;;;;;9.10;99.90;;;;;;5002413;28;19932;-79
2022/04/25 07:41:46;;;;;;;;;;;9.10;99.90;;;;;;4974877;23;21406;-79
2022/04/25 07:44:14;;;;;;;;;;;9.10;99.90;;;;;;4951140;28;19931;-78
2022/04/25 07:46:41;;;;;;;;;;;9.10;99.90;;;;;;4956027;28;20577;-78
2022/04/25 07:49:09;;;;;;;;;;;9.20;99.90;;;;;;4974122;28;19933;-79
2022/04/25 07:51:37;;;;;;;;;;;9.20;99.90;;;;;;4948595;28;19933;-79
2022/04/25 07:54:05;;;;;;;;;;;9.20;99.90;;;;;;4959975;28;20461;-79
2022/04/25 07:56:32;;;;;;;;;;;9.20;99.90;;;;;;4965093;28;21459;-79
2022/04/25 07:59:00;;;;;;;;;;;9.20;99.90;;;;;;4969234;28;19926;-79
2022/04/25 08:01:28;;;;;;;;;;;9.20;99.90;;;;;;4971056;28;20028;-79
2022/04/25 08:03:55;;;;;;;;;;;9.30;99.90;;;;;;4952461;28;19936;-79
2022/04/25 08:06:22;;;;;;;;;;;9.30;99.90;;;;;;4960092;28;19926;-79
2022/04/25 08:08:51;;;;;;;;;;;9.30;99.90;;;;;;4972844;28;19930;-79
2022/04/25 08:11:18;;;;;;;;;;;9.30;99.90;;;;;;4973750;28;19930;-79
2022/04/25 08:19:14;;;;;;;;;;;9.30;99.90;;;;;;4950168;28;19937;-78
2022/04/25 08:21:43;;;;;;;;;;;9.30;99.90;;;;;;4965348;28;19952;-79
2022/04/25 08:24:15;;;;;;;;;;;9.40;99.90;;;;;;4951742;28;19981;-78
2022/04/25 08:26:43;;;;;;;;;;;9.40;99.90;;;;;;4968307;28;20373;-78
2022/04/25 08:29:10;;;;;;;;;;;9.40;99.90;;;;;;4949376;28;19926;-79
2022/04/25 08:31:38;;;;;;;;;;;9.40;99.90;;;;;;4952075;28;20373;-79
2022/04/25 08:34:06;;;;;;;;;;;9.40;99.90;;;;;;4966080;28;19961;-79
2022/04/25 08:36:33;;;;;;;;;;;9.40;99.90;;;;;;4968166;28;20345;-78
2022/04/25 08:39:01;;;;;;;;;;;9.50;99.90;;;;;;4964869;28;19926;-79
2022/04/25 08:41:31;;;;;;;;;;;9.40;99.90;;;;;;4967927;28;19926;-78
2022/04/25 08:43:59;;;;;;;;;;;9.50;99.90;;;;;;4958086;28;19954;-79
2022/04/25 08:46:28;;;;;;;;;;;9.50;99.90;;;;;;4968071;28;19926;-79
2022/04/25 08:48:57;;;;;;;;;;;9.50;99.90;;;;;;4949264;28;19930;-79
2022/04/25 08:51:25;;;;;;;;;;;9.50;99.90;;;;;;4968316;28;20452;-78
2022/04/25 08:53:54;;;;;;;;;;;9.60;99.90;;;;;;4958690;28;19930;-78
2022/04/25 08:56:25;;;;;;;;;;;9.60;99.90;;;;;;4947639;28;19930;-78
2022/04/25 08:58:56;;;;;;;;;;;9.60;99.90;;;;;;4959290;28;19937;-78
2022/04/25 09:01:23;;;;;;;;;;;9.60;99.90;;;;;;4966161;28;20519;-78
2022/04/25 09:03:51;;;;;;;;;;;9.60;99.90;;;;;;4963914;28;20304;-78
2022/04/25 09:06:18;;;;;;;;;;;9.60;99.90;;;;;;4949931;28;20024;-79
2022/04/25 09:08:45;;;;;;;;;;;9.70;99.90;;;;;;4950236;28;19926;-78
2022/04/25 09:13:58;;;;;;;;;;;9.70;99.90;;;;;;4962174;28;19981;-79
2022/04/25 09:16:26;;;;;;;;;;;9.70;99.90;;;;;;4968981;28;19929;-78
2022/04/25 09:18:53;;;;;;;;;;;9.80;99.90;;;;;;4967095;28;19930;-78
2022/04/25 09:21:20;;;;;;;;;;;9.80;99.90;;;;;;4955500;28;19981;-79
2022/04/25 09:23:48;;;;;;;;;;;9.80;99.90;;;;;;4962611;28;20411;-79
2022/04/25 09:26:16;;;;;;;;;;;9.80;99.90;;;;;;4966302;28;20016;-78
2022/04/25 09:28:47;;;;;;;;;;;9.80;99.90;;;;;;4946353;28;20304;-79
2022/04/25 09:31:16;;;;;;;;;;;9.90;99.90;;;;;;4968357;28;19926;-78
2022/04/25 09:33:43;;;;;;;;;;;9.90;99.90;;;;;;4965465;28;19948;-79
2022/04/25 09:36:11;;;;;;;;;;;9.90;99.90;;;;;;4948026;28;20020;-79
2022/04/25 09:38:39;;;;;;;;;;;9.90;99.90;;;;;;4965559;28;19926;-77
2022/04/25 09:41:07;;;;;;;;;;;9.90;99.90;;;;;;4969497;28;19930;-79
2022/04/25 09:43:34;;;;;;;;;;;9.90;99.90;;;;;;4970383;28;20009;-79
2022/04/25 09:46:02;;;;;;;;;;;10.00;99.90;;;;;;4960489;28;20005;-79
2022/04/25 09:48:31;;;;;;;;;;;10.00;99.90;;;;;;4962191;28;20300;-79
2022/04/25 09:51:02;;;;;;;;;;;10.00;99.90;;;;;;4968266;28;19934;-79
2022/04/25 09:53:46;;;;;;;;;;;10.00;99.90;;;;;;4951888;28;19930;-78
2022/04/25 09:56:13;;;;;;;;;;;10.10;99.90;;;;;;4946117;28;19933;-79
2022/04/25 09:58:42;;;;;;;;;;;10.10;99.90;;;;;;4967046;28;19930;-79
2022/04/25 10:01:11;;;;;;;;;;;10.10;99.90;;;;;;4967205;28;19932;-79
2022/04/25 10:03:40;;;;;;;;;;;10.10;99.90;;;;;;4960670;28;19930;-77
2022/04/25 10:06:08;;;;;;;;;;;10.10;99.90;;;;;;4964457;28;20375;-79
2022/04/25 10:08:36;;;;;;;;;;;10.10;99.90;;;;;;4962296;28;20024;-78
2022/04/25 10:11:04;;;;;;;;;;;10.20;99.90;;;;;;4950846;28;19977;-79
2022/04/25 10:13:32;;;;;;;;;;;10.20;99.90;;;;;;4947697;28;19926;-79
2022/04/25 10:16:00;;;;;;;;;;;10.20;99.90;;;;;;4965422;28;19969;-79
2022/04/25 10:18:27;;;;;;;;;;;10.30;99.90;;;;;;4949925;28;19934;-78
2022/04/25 10:20:56;;;;;;;;;;;10.30;99.90;;;;;;4947908;28;19939;-79
2022/04/25 10:23:24;;;;;;;;;;;10.30;99.90;;;;;;4942930;28;19933;-79
2022/04/25 10:25:51;;;;;;;;;;;10.30;99.90;;;;;;4965144;28;19932;-78
2022/04/25 10:28:23;;;;;;;;;;;10.30;99.90;;;;;;4946853;28;19988;-79
2022/04/25 10:30:51;;;;;;;;;;;10.40;99.90;;;;;;4947391;28;20016;-78
2022/04/25 10:33:19;;;;;;;;;;;10.40;99.90;;;;;;4966229;28;20303;-78
2022/04/25 10:35:47;;;;;;;;;;;10.40;99.90;;;;;;4950529;28;20433;-79
2022/04/25 10:38:50;;;;;;;;;;;10.40;99.90;;;;;;4963445;28;20300;-78
2022/04/25 10:44:13;;;;;;;;;;;10.50;99.90;;;;;;4966268;28;19922;-78
2022/04/25 10:47:01;;;;;;;;;;;10.50;99.90;;;;;;4956363;23;19926;-91
2022/04/25 10:49:31;;;;;;;;;;;10.50;99.90;;;;;;4950795;28;19988;-92
2022/04/25 10:51:58;;;;;;;;;;;10.50;99.90;;;;;;4952558;28;20427;-91
2022/04/25 10:54:27;;;;;;;;;;;10.60;99.90;;;;;;4956250;28;19926;-91
2022/04/25 10:57:13;;;;;;;;;;;10.60;99.90;;;;;;4949117;28;20017;-91
2022/04/25 10:59:40;;;;;;;;;;;10.60;99.90;;;;;;4954995;28;19934;-92
2022/04/25 11:02:21;;;;;;;;;;;10.60;99.90;;;;;;4951338;28;19930;-92
2022/04/25 11:04:48;;;;;;;;;;;10.70;99.90;;;;;;4966685;28;19926;-92
2022/04/25 11:07:19;;;;;;;;;;;10.70;99.90;;;;;;4964810;28;19926;-91
2022/04/25 11:09:48;;;;;;;;;;;10.70;99.90;;;;;;4956763;28;20012;-92
2022/04/25 11:12:15;;;;;;;;;;;10.70;99.90;;;;;;4962515;28;19926;-91
2022/04/25 11:14:56;;;;;;;;;;;10.70;99.90;;;;;;4968760;28;20424;-93
2022/04/25 11:17:23;;;;;;;;;;;10.80;99.90;;;;;;4961873;28;19927;-91
2022/04/25 11:19:54;;;;;;;;;;;10.80;99.90;;;;;;4947100;28;19998;-92
2022/04/25 11:22:31;;;;;;;;;;;10.80;99.90;;;;;;4970469;28;20306;-92
2022/04/25 11:25:20;;;;;;;;;;;10.80;99.90;;;;;;4965886;28;20389;-91
2022/04/25 11:28:04;;;;;;;;;;;10.90;99.90;;;;;;4942754;28;19930;-92
2022/04/25 11:30:31;;;;;;;;;;;10.90;99.90;;;;;;4973424;28;19976;-92
2022/04/25 11:33:02;;;;;;;;;;;10.90;99.90;;;;;;4963451;28;19942;-90
2022/04/25 11:35:29;;;;;;;;;;;10.90;99.90;;;;;;4969595;28;20016;-91
2022/04/25 11:37:56;;;;;;;;;;;10.90;99.90;;;;;;4955406;28;19933;-92
2022/04/25 11:40:26;;;;;;;;;;;10.90;99.90;;;;;;4964960;28;20340;-91
2022/04/25 11:42:54;;;;;;;;;;;11.00;99.90;;;;;;4970647;28;19934;-92
2022/04/25 11:45:21;;;;;;;;;;;11.00;99.90;;;;;;4954833;28;19981;-91
2022/04/25 11:47:48;;;;;;;;;;;11.00;99.90;;;;;;4956571;28;19926;-91
2022/04/25 11:50:19;;;;;;;;;;;11.10;99.90;;;;;;4951203;28;19926;-93
2022/04/25 11:52:47;;;;;;;;;;;11.10;99.90;;;;;;4950938;28;19949;-92
2022/04/25 11:55:14;;;;;;;;;;;11.10;99.90;;;;;;4956764;28;19930;-93
2022/04/25 11:57:45;;;;;;;;;;;11.10;99.90;;;;;;4961332;28;19937;-92
2022/04/25 12:00:14;;;;;;;;;;;11.10;99.90;;;;;;4968400;28;19933;-93
2022/04/25 12:02:41;;;;;;;;;;;11.20;99.90;;;;;;4957100;28;19945;-94
2022/04/25 12:05:09;;;;;;;;;;;11.10;99.90;;;;;;4958918;28;19933;-93
2022/04/25 12:07:37;;;;;;;;;;;11.20;99.90;;;;;;4955787;28;20457;-92
2022/04/25 12:15:38;;;;;;;;;;;11.20;99.90;;;;;;4949543;28;19969;-91
2022/04/25 12:18:15;;;;;;;;;;;11.30;99.90;;;;;;4975649;28;19937;-91
2022/04/25 12:20:43;;;;;;;;;;;11.30;99.90;;;;;;4959206;28;19926;-91
2022/04/25 12:23:11;;;;;;;;;;;11.40;99.90;;;;;;4976322;28;19957;-90
2022/04/25 12:25:41;;;;;;;;;;;11.40;99.90;;;;;;4976647;28;19953;-93
2022/04/25 12:28:17;;;;;;;;;;;11.40;99.90;;;;;;4973069;28;19958;-94
2022/04/25 12:30:48;;;;;;;;;;;11.40;99.90;;;;;;4977180;28;19926;-93
2022/04/25 12:33:16;;;;;;;;;;;11.40;99.90;;;;;;4966335;28;19926;-93
2022/04/25 12:35:44;;;;;;;;;;;11.40;99.90;;;;;;4961500;28;20385;-93
2022/04/25 12:38:11;;;;;;;;;;;11.50;99.90;;;;;;4974484;28;19930;-94
2022/04/25 12:40:57;;;;;;;;;;;11.50;99.90;;;;;;4959880;28;19961;-94
2022/04/25 12:43:44;;;;;;;;;;;11.50;99.90;;;;;;4973678;28;19933;-94
2022/04/25 12:46:12;;;;;;;;;;;11.50;99.90;;;;;;4980509;28;19967;-93
2022/04/25 12:49:01;;;;;;;;;;;11.50;99.90;;;;;;4983912;28;20396;-92
2022/04/25 12:51:29;;;;;;;;;;;11.40;99.90;;;;;;4978846;28;19930;-93
2022/04/25 12:53:57;;;;;;;;;;;11.50;99.90;;;;;;4963022;28;20385;-93
2022/04/25 12:56:24;;;;;;;;;;;11.50;99.90;;;;;;4969396;28;19935;-93
2022/04/25 12:58:53;;;;;;;;;;;11.40;99.90;;;;;;4967541;28;20085;-94
2022/04/25 13:01:31;;;;;;;;;;;11.40;99.90;;;;;;4955760;28;20289;-93
2022/04/25 13:04:06;;;;;;;;;;;11.40;99.90;;;;;;4967262;28;20315;-94
2022/04/25 13:06:35;;;;;;;;;;;11.40;99.90;;;;;;4954632;28;19938;-95
2022/04/25 13:09:11;;;;;;;;;;;11.40;99.90;;;;;;4975651;28;19953;-92
2022/04/25 13:11:39;;;;;;;;;;;11.40;99.90;;;;;;4963465;28;19956;-93
2022/04/25 13:14:08;;;;;;;;;;;11.40;99.90;;;;;;4954821;28;19937;-92
2022/04/25 13:16:36;;;;;;;;;;;11.40;99.90;;;;;;4958562;28;20312;-94
2022/04/25 13:19:03;;;;;;;;;;;11.40;99.90;;;;;;4975226;28;19989;-91
2022/04/25 13:21:34;;;;;;;;;;;11.40;99.90;;;;;;4963568;28;19941;-94
2022/04/25 13:24:02;;;;;;;;;;;11.30;99.90;;;;;;4964361;28;19941;-93
2022/04/25 13:26:29;;;;;;;;;;;11.40;99.90;;;;;;4970815;28;19934;-96
2022/04/25 13:28:57;;;;;;;;;;;11.40;99.90;;;;;;4980570;28;19982;-92
2022/04/25 13:31:26;;;;;;;;;;;11.40;99.90;;;;;;4969752;28;19942;-96
2022/04/25 13:33:53;;;;;;;;;;;11.40;99.90;;;;;;4953871;28;20391;-92
2022/04/25 13:36:20;;;;;;;;;;;11.30;99.90;;;;;;4974486;28;20337;-92
2022/04/25 13:38:47;;;;;;;;;;;11.40;99.90;;;;;;4955087;28;20090;-95
2022/04/25 13:41:15;;;;;;;;;;;11.40;99.90;;;;;;4961957;28;20419;-94
2022/04/25 13:43:44;;;;;;;;;;;11.30;99.90;;;;;;4948436;28;19933;-96
2022/04/25 13:46:11;;;;;;;;;;;11.40;99.90;;;;;;4968124;28;20143;-95
2022/04/25 13:48:43;;;;;;;;;;;11.30;99.90;;;;;;4969517;28;19934;-91
2022/04/25 13:51:20;;;;;;;;;;;11.40;99.90;;;;;;4960479;28;19935;-93
2022/04/25 13:53:49;;;;;;;;;;;11.40;99.90;;;;;;4963401;28;19930;-95
2022/04/25 13:56:17;;;;;;;;;;;11.30;99.90;;;;;;4951482;28;19965;-95
2022/04/25 13:58:45;;;;;;;;;;;11.30;99.90;;;;;;4952699;28;20018;-94
2022/04/25 14:01:13;;;;;;;;;;;11.40;99.90;;;;;;4969030;28;20016;-93
2022/04/25 14:03:55;;;;;;;;;;;11.30;99.90;;;;;;4971361;28;19958;-92
2022/04/25 14:06:38;;;;;;;;;;;11.30;99.90;;;;;;4972430;28;19930;-95
2022/04/25 14:09:18;;;;;;;;;;;11.30;99.90;;;;;;4945382;28;19959;-94
2022/04/25 14:11:48;;;;;;;;;;;11.40;99.90;;;;;;4956540;28;20156;-94
2022/04/25 14:14:44;;;;;;;;;;;11.30;99.90;;;;;;4965537;28;19926;-96
2022/04/25 14:17:19;;;;;;;;;;;11.30;99.90;;;;;;4959872;28;19914;-96
2022/04/25 14:19:48;;;;;;;;;;;11.30;99.90;;;;;;4968280;28;19939;-96
2022/04/25 14:22:22;;;;;;;;;;;11.40;99.90;;;;;;4963160;28;20067;-95
2022/04/25 14:24:55;;;;;;;;;;;11.40;99.90;;;;;;4977992;28;19922;-96
2022/04/25 14:27:37;;;;;;;;;;;11.40;99.90;;;;;;4989372;28;19930;-94
2022/04/25 14:30:15;;;;;;;;;;;11.30;99.90;;;;;;4970749;28;19930;-95
2022/04/25 14:32:50;;;;;;;;;;;11.40;99.90;;;;;;4981611;28;19915;-96
2022/04/25 14:35:34;;;;;;;;;;;11.40;99.90;;;;;;4986830;28;19929;-96
2022/04/25 14:38:05;;;;;;;;;;;11.40;99.90;;;;;;4966736;28;19960;-96
2022/04/25 14:40:35;;;;;;;;;;;11.40;99.90;;;;;;4966873;28;19915;-96
2022/04/25 14:43:03;;;;;;;;;;;11.40;99.90;;;;;;4978439;28;20002;-95
2022/04/25 14:45:47;;;;;;;;;;;11.40;99.90;;;;;;4986519;28;19930;-96
2022/04/25 14:48:18;;;;;;;;;;;11.50;99.90;;;;;;4988625;23;19929;-87
2022/04/25 14:56:16;;;;;;;;;;;11.60;99.90;;;;;;5002367;28;19940;-87
2022/04/25 14:59:22;;;;;;;;;;;11.60;99.90;;;;;;4988418;28;19949;-88
2022/04/25 15:01:51;;;;;;;;;;;11.60;99.90;;;;;;4982046;28;20308;-87
2022/04/25 15:04:24;;;;;;;;;;;11.60;99.90;;;;;;4998298;28;19945;-89
2022/04/25 15:06:51;;;;;;;;;;;11.60;99.90;;;;;;4978330;28;19940;-88
2022/04/25 15:09:22;;;;;;;;;;;11.60;99.90;;;;;;5004798;28;19926;-89
2022/04/25 15:11:51;;;;;;;;;;;11.60;99.90;;;;;;5003537;28;19969;-89
2022/04/25 15:14:18;;;;;;;;;;;11.70;99.90;;;;;;4985099;28;19976;-89
2022/04/25 15:16:47;;;;;;;;;;;11.70;99.90;;;;;;5001057;28;19926;-89